createdAt,value
2017-03-26T00:00:05.797Z,87.52
2017-03-26T00:01:00.796Z,87.62
2017-03-26T00:01:55.892Z,87.67
2017-03-26T00:02:49.873Z,87.66
2017-03-26T00:03:43.918Z,87.70
2017-03-26T00:04:37.997Z,87.72
2017-03-26T00:05:25.991Z,87.74
2017-03-26T00:06:15.025Z,87.74
2017-03-26T00:07:09.125Z,87.79
2017-03-26T00:08:09.095Z,87.82
2017-03-26T00:08:57.161Z,87.79
2017-03-26T00:09:52.125Z,87.78
2017-03-26T00:10:52.118Z,87.77
2017-03-26T00:11:46.230Z,87.77
2017-03-26T00:12:41.217Z,87.86
2017-03-26T00:13:35.283Z,87.86
2017-03-26T00:14:30.589Z,87.90
2017-03-26T00:15:25.389Z,87.87
2017-03-26T00:16:19.584Z,87.85
2017-03-26T00:17:14.378Z,87.80
2017-03-26T00:18:08.411Z,87.74
2017-03-26T00:19:08.461Z,87.71
2017-03-26T00:20:03.489Z,87.72
2017-03-26T00:20:58.644Z,87.76
2017-03-26T00:21:52.511Z,87.73
2017-03-26T00:22:46.530Z,87.70
2017-03-26T00:23:40.598Z,87.62
2017-03-26T00:24:35.577Z,87.52
2017-03-26T00:25:24.624Z,87.48
2017-03-26T00:26:25.756Z,87.43
2017-03-26T00:27:25.695Z,87.45
2017-03-26T00:28:19.814Z,87.46
2017-03-26T00:29:14.736Z,87.45
2017-03-26T00:30:02.742Z,87.43
2017-03-26T00:30:51.840Z,87.48
2017-03-26T00:31:45.920Z,87.52
2017-03-26T00:32:46.907Z,87.53
2017-03-26T00:33:35.866Z,87.56
2017-03-26T00:34:24.996Z,87.56
2017-03-26T00:35:18.965Z,87.58
2017-03-26T00:36:18.969Z,87.51
2017-03-26T00:37:13.153Z,87.43
2017-03-26T00:38:13.069Z,87.40
2017-03-26T00:39:07.155Z,87.39
2017-03-26T00:40:07.153Z,87.37
2017-03-26T00:41:07.108Z,87.36
2017-03-26T00:42:02.167Z,87.34
2017-03-26T00:42:51.225Z,87.40
2017-03-26T00:43:46.273Z,87.45
2017-03-26T00:44:46.245Z,87.53
2017-03-26T00:45:41.282Z,87.61
2017-03-26T00:46:36.296Z,87.65
2017-03-26T00:47:36.285Z,87.75
2017-03-26T00:48:31.474Z,87.80
2017-03-26T00:49:25.403Z,87.93
2017-03-26T00:50:20.418Z,87.99
2017-03-26T00:51:15.481Z,88.05
2017-03-26T00:52:09.579Z,88.12
2017-03-26T00:53:09.485Z,88.21
2017-03-26T00:54:03.735Z,88.23
2017-03-26T00:55:03.654Z,88.38
2017-03-26T00:55:58.646Z,88.33
2017-03-26T00:56:53.666Z,88.28
2017-03-26T00:57:53.694Z,88.22
2017-03-26T00:58:42.747Z,88.19
2017-03-26T00:59:43.776Z,88.22
2017-03-26T01:00:38.774Z,88.18
2017-03-26T01:01:33.804Z,88.18
2017-03-26T01:02:33.833Z,88.14
2017-03-26T01:03:22.915Z,88.18
2017-03-26T01:04:17.911Z,88.16
2017-03-26T01:05:12.014Z,88.12
2017-03-26T01:06:06.937Z,88.11
2017-03-26T01:06:56.024Z,88.10
2017-03-26T01:07:50.014Z,88.09
2017-03-26T01:08:55.981Z,88.10
2017-03-26T01:09:56.082Z,88.09
2017-03-26T01:10:45.155Z,88.09
2017-03-26T01:11:40.115Z,88.14
2017-03-26T01:12:34.250Z,88.09
2017-03-26T01:13:29.198Z,88.08
2017-03-26T01:14:18.211Z,88.06
2017-03-26T01:15:12.243Z,88.05
2017-03-26T01:16:13.311Z,88.08
2017-03-26T01:17:08.335Z,88.16
2017-03-26T01:18:02.284Z,88.22
2017-03-26T01:19:02.403Z,88.34
2017-03-26T01:19:57.397Z,88.44
2017-03-26T01:20:46.443Z,88.44
2017-03-26T01:21:41.457Z,88.45
2017-03-26T01:22:35.465Z,88.44
2017-03-26T01:23:29.511Z,88.46
2017-03-26T01:24:23.506Z,88.48
2017-03-26T01:25:17.595Z,88.49
2017-03-26T01:26:12.602Z,88.53
2017-03-26T01:27:01.749Z,88.56
2017-03-26T01:27:50.708Z,88.58
2017-03-26T01:28:51.696Z,88.63
2017-03-26T01:29:45.702Z,88.69
2017-03-26T01:30:39.761Z,88.74
2017-03-26T01:31:33.780Z,88.78
2017-03-26T01:32:33.886Z,88.81
2017-03-26T01:33:22.869Z,88.79
2017-03-26T01:34:10.860Z,88.81
2017-03-26T01:34:59.891Z,88.88
2017-03-26T01:35:53.944Z,88.98
2017-03-26T01:36:42.962Z,89.03
2017-03-26T01:37:38.037Z,89.07
2017-03-26T01:38:32.174Z,89.16
2017-03-26T01:39:32.141Z,89.22
2017-03-26T01:40:32.128Z,89.28
2017-03-26T01:41:21.141Z,89.31
2017-03-26T01:42:15.124Z,89.39
2017-03-26T01:43:10.542Z,89.46
2017-03-26T01:44:04.180Z,89.53
2017-03-26T01:44:52.217Z,89.59
2017-03-26T01:45:53.281Z,89.63
2017-03-26T01:46:42.337Z,89.66
2017-03-26T01:47:36.361Z,89.69
2017-03-26T01:48:25.433Z,89.74
2017-03-26T01:49:25.412Z,89.81
2017-03-26T01:50:25.394Z,89.81
2017-03-26T01:51:19.483Z,89.86
2017-03-26T01:52:19.487Z,89.91
2017-03-26T01:53:14.497Z,89.90
2017-03-26T01:54:08.586Z,89.95
2017-03-26T01:54:57.615Z,89.95
2017-03-26T01:55:46.591Z,89.98
2017-03-26T01:56:40.928Z,89.99
2017-03-26T01:57:35.705Z,90.04
2017-03-26T01:58:29.754Z,90.10
2017-03-26T01:59:24.797Z,90.13
2017-03-26T02:00:19.154Z,90.10
2017-03-26T02:01:06.798Z,90.13
2017-03-26T02:02:06.794Z,90.15
2017-03-26T02:03:00.854Z,90.14
2017-03-26T02:03:55.379Z,90.17
2017-03-26T02:04:43.928Z,90.17
2017-03-26T02:05:31.961Z,90.17
2017-03-26T02:06:27.031Z,90.18
2017-03-26T02:07:21.003Z,90.22
2017-03-26T02:08:16.124Z,90.20
2017-03-26T02:09:16.090Z,90.21
2017-03-26T02:10:11.078Z,90.20
2017-03-26T02:11:11.130Z,90.20
2017-03-26T02:12:06.247Z,90.22
2017-03-26T02:13:01.197Z,90.21
2017-03-26T02:14:01.228Z,90.19
2017-03-26T02:14:56.202Z,90.13
2017-03-26T02:15:51.403Z,90.11
2017-03-26T02:16:45.312Z,90.08
2017-03-26T02:17:39.697Z,90.03
2017-03-26T02:18:34.394Z,89.99
2017-03-26T02:19:28.392Z,89.92
2017-03-26T02:20:16.452Z,89.87
2017-03-26T02:21:11.756Z,89.84
2017-03-26T02:22:11.489Z,89.78
2017-03-26T02:23:00.605Z,89.67
2017-03-26T02:23:54.533Z,89.52
2017-03-26T02:24:43.603Z,89.37
2017-03-26T02:25:37.591Z,89.24
2017-03-26T02:26:37.714Z,89.13
2017-03-26T02:27:37.693Z,89.00
2017-03-26T02:28:32.711Z,88.94
2017-03-26T02:29:27.690Z,88.87
2017-03-26T02:30:27.778Z,88.85
2017-03-26T02:31:21.791Z,88.77
2017-03-26T02:32:27.942Z,88.67
2017-03-26T02:33:27.799Z,88.57
2017-03-26T02:34:22.865Z,88.53
2017-03-26T02:35:16.985Z,88.48
2017-03-26T02:36:17.902Z,88.46
2017-03-26T02:37:11.943Z,88.44
2017-03-26T02:38:06.048Z,88.38
2017-03-26T02:39:00.970Z,88.36
2017-03-26T02:39:55.085Z,88.32
2017-03-26T02:40:50.123Z,88.33
2017-03-26T02:41:50.089Z,88.23
2017-03-26T02:42:45.402Z,88.17
2017-03-26T02:43:45.351Z,88.13
2017-03-26T02:44:45.456Z,88.09
2017-03-26T02:45:40.208Z,88.01
2017-03-26T02:46:35.275Z,87.98
2017-03-26T02:47:30.318Z,87.93
2017-03-26T02:48:25.330Z,87.91
2017-03-26T02:49:19.489Z,87.91
2017-03-26T02:50:13.380Z,87.88
2017-03-26T02:51:13.572Z,87.88
2017-03-26T02:52:08.377Z,87.88
2017-03-26T02:52:57.466Z,87.88
2017-03-26T02:53:51.498Z,87.84
2017-03-26T02:54:46.542Z,87.82
2017-03-26T02:55:41.581Z,87.81
2017-03-26T02:56:41.562Z,87.81
2017-03-26T02:57:36.603Z,87.81
2017-03-26T02:58:30.601Z,87.79
2017-03-26T02:59:25.685Z,87.75
2017-03-26T03:00:20.677Z,87.69
2017-03-26T03:01:14.752Z,87.69
2017-03-26T03:02:14.786Z,87.65
2017-03-26T03:03:14.798Z,87.61
2017-03-26T03:04:09.819Z,87.57
2017-03-26T03:05:03.852Z,87.57
2017-03-26T03:06:03.964Z,87.57
2017-03-26T03:06:59.347Z,87.55
2017-03-26T03:07:53.912Z,87.54
2017-03-26T03:08:54.016Z,87.51
2017-03-26T03:09:48.980Z,87.47
2017-03-26T03:10:44.279Z,87.45
2017-03-26T03:11:45.042Z,87.45
2017-03-26T03:12:45.209Z,87.45
2017-03-26T03:13:34.107Z,87.45
2017-03-26T03:14:34.152Z,87.48
2017-03-26T03:15:29.206Z,87.45
2017-03-26T03:16:24.185Z,87.46
2017-03-26T03:17:24.210Z,87.47
2017-03-26T03:18:19.214Z,87.42
2017-03-26T03:19:13.288Z,87.41
2017-03-26T03:20:08.335Z,87.41
2017-03-26T03:21:03.364Z,87.41
2017-03-26T03:21:57.358Z,87.40
2017-03-26T03:22:52.590Z,87.40
2017-03-26T03:23:46.419Z,87.44
2017-03-26T03:24:47.014Z,87.48
2017-03-26T03:25:40.549Z,87.49
2017-03-26T03:26:46.558Z,87.48
2017-03-26T03:27:40.534Z,87.53
2017-03-26T03:28:40.593Z,87.53
2017-03-26T03:29:35.631Z,87.55
2017-03-26T03:30:35.696Z,87.57
2017-03-26T03:31:30.713Z,87.58
2017-03-26T03:32:25.710Z,87.58
2017-03-26T03:33:26.739Z,87.64
2017-03-26T03:34:21.842Z,87.66
2017-03-26T03:35:10.822Z,87.70
2017-03-26T03:36:04.859Z,87.75
2017-03-26T03:36:59.858Z,87.80
2017-03-26T03:37:59.890Z,87.80
2017-03-26T03:38:59.896Z,87.81
2017-03-26T03:39:55.013Z,87.81
2017-03-26T03:40:49.338Z,87.79
2017-03-26T03:41:49.391Z,87.76
2017-03-26T03:42:44.071Z,87.70
2017-03-26T03:43:44.067Z,87.70
2017-03-26T03:44:38.056Z,87.66
2017-03-26T03:45:32.123Z,87.63
2017-03-26T03:46:27.198Z,87.66
2017-03-26T03:47:21.228Z,87.66
2017-03-26T03:48:10.248Z,87.68
2017-03-26T03:49:10.235Z,87.71
2017-03-26T03:50:04.798Z,87.70
2017-03-26T03:51:04.288Z,87.75
2017-03-26T03:52:04.366Z,87.76
2017-03-26T03:52:59.394Z,87.80
2017-03-26T03:53:53.414Z,87.80
2017-03-26T03:54:53.423Z,87.84
2017-03-26T03:55:48.593Z,87.84
2017-03-26T03:56:42.540Z,87.89
2017-03-26T03:57:42.633Z,87.89
2017-03-26T03:58:42.528Z,87.89
2017-03-26T03:59:37.599Z,87.93
2017-03-26T04:00:32.606Z,87.98
2017-03-26T04:01:33.650Z,87.96
2017-03-26T04:02:34.074Z,87.98
2017-03-26T04:03:33.696Z,87.99
2017-03-26T04:04:33.686Z,88.03
2017-03-26T04:05:33.741Z,88.03
2017-03-26T04:06:28.760Z,88.03
2017-03-26T04:07:17.802Z,88.04
2017-03-26T04:08:12.861Z,88.06
2017-03-26T04:09:13.864Z,88.08
2017-03-26T04:10:07.909Z,88.09
2017-03-26T04:11:07.939Z,88.10
2017-03-26T04:11:56.989Z,88.13
2017-03-26T04:12:52.332Z,88.15
2017-03-26T04:13:52.410Z,88.18
2017-03-26T04:14:46.035Z,88.21
2017-03-26T04:15:47.106Z,88.28
2017-03-26T04:16:48.089Z,88.32
2017-03-26T04:17:42.135Z,88.34
2017-03-26T04:18:42.183Z,88.39
2017-03-26T04:19:37.200Z,88.41
2017-03-26T04:20:37.233Z,88.43
2017-03-26T04:21:31.454Z,88.45
2017-03-26T04:22:31.542Z,88.47
2017-03-26T04:23:25.333Z,88.52
2017-03-26T04:24:26.359Z,88.52
2017-03-26T04:25:20.389Z,88.57
2017-03-26T04:26:09.388Z,88.57
2017-03-26T04:27:09.402Z,88.58
2017-03-26T04:28:03.459Z,88.64
2017-03-26T04:28:57.470Z,88.66
2017-03-26T04:29:51.503Z,88.65
2017-03-26T04:30:51.603Z,88.67
2017-03-26T04:31:45.631Z,88.72
2017-03-26T04:32:45.601Z,88.74
2017-03-26T04:33:40.658Z,88.74
2017-03-26T04:34:35.687Z,88.74
2017-03-26T04:35:35.686Z,88.77
2017-03-26T04:36:30.765Z,88.77
2017-03-26T04:37:24.792Z,88.78
2017-03-26T04:38:24.825Z,88.78
2017-03-26T04:39:24.932Z,88.81
2017-03-26T04:40:18.895Z,88.83
2017-03-26T04:41:24.870Z,88.82
2017-03-26T04:42:18.909Z,88.85
2017-03-26T04:43:18.944Z,88.86
2017-03-26T04:44:18.963Z,88.87
2017-03-26T04:45:08.378Z,88.86
2017-03-26T04:46:03.017Z,88.91
2017-03-26T04:46:52.109Z,88.91
2017-03-26T04:47:47.291Z,88.91
2017-03-26T04:48:47.125Z,88.91
2017-03-26T04:49:47.175Z,88.91
2017-03-26T04:50:42.178Z,88.93
2017-03-26T04:51:36.218Z,88.95
2017-03-26T04:52:30.282Z,88.96
2017-03-26T04:53:25.329Z,88.96
2017-03-26T04:54:14.386Z,88.96
2017-03-26T04:55:09.348Z,88.92
2017-03-26T04:56:09.375Z,88.92
2017-03-26T04:57:03.410Z,88.92
2017-03-26T04:58:09.379Z,88.92
2017-03-26T04:59:09.470Z,88.92
2017-03-26T05:00:09.561Z,88.97
2017-03-26T05:01:15.855Z,88.98
2017-03-26T05:02:11.075Z,89.00
2017-03-26T05:03:05.578Z,88.98
2017-03-26T05:04:05.588Z,88.93
2017-03-26T05:05:00.700Z,88.92
2017-03-26T05:05:55.720Z,88.90
2017-03-26T05:06:55.715Z,88.90
2017-03-26T05:07:50.757Z,88.91
2017-03-26T05:08:45.691Z,88.91
2017-03-26T05:09:46.800Z,88.91
2017-03-26T05:10:42.087Z,88.93
2017-03-26T05:11:35.870Z,88.96
2017-03-26T05:12:29.881Z,88.96
2017-03-26T05:13:29.920Z,88.96
2017-03-26T05:14:23.913Z,88.97
2017-03-26T05:15:18.006Z,89.00
2017-03-26T05:16:07.033Z,88.98
2017-03-26T05:17:02.015Z,88.99
2017-03-26T05:17:57.145Z,89.01
2017-03-26T05:18:58.085Z,89.01
2017-03-26T05:19:58.117Z,89.01
2017-03-26T05:20:46.189Z,89.00
2017-03-26T05:21:35.227Z,88.99
2017-03-26T05:22:35.213Z,88.96
2017-03-26T05:23:24.331Z,88.98
2017-03-26T05:24:19.302Z,88.99
2017-03-26T05:25:19.338Z,89.01
2017-03-26T05:26:13.720Z,89.00
2017-03-26T05:27:13.752Z,89.01
2017-03-26T05:28:07.508Z,88.98
2017-03-26T05:29:07.474Z,88.96
2017-03-26T05:30:07.480Z,88.96
2017-03-26T05:31:07.569Z,88.97
2017-03-26T05:32:02.560Z,88.97
2017-03-26T05:32:57.585Z,88.93
2017-03-26T05:33:51.584Z,88.88
2017-03-26T05:34:51.677Z,88.84
2017-03-26T05:35:45.700Z,88.82
2017-03-26T05:36:40.764Z,88.70
2017-03-26T05:37:40.766Z,88.65
2017-03-26T05:38:35.891Z,88.66
2017-03-26T05:39:35.775Z,88.62
2017-03-26T05:40:30.801Z,88.65
2017-03-26T05:41:25.915Z,88.63
2017-03-26T05:42:19.872Z,88.63
2017-03-26T05:43:20.093Z,88.61
2017-03-26T05:44:14.956Z,88.60
2017-03-26T05:45:09.996Z,88.53
2017-03-26T05:46:10.054Z,88.50
2017-03-26T05:47:03.994Z,88.47
2017-03-26T05:47:59.154Z,88.39
2017-03-26T05:48:54.101Z,88.33
2017-03-26T05:49:55.247Z,88.34
2017-03-26T05:50:50.504Z,88.28
2017-03-26T05:51:50.570Z,88.29
2017-03-26T05:52:50.218Z,88.28
2017-03-26T05:53:50.216Z,88.28
2017-03-26T05:54:50.614Z,88.30
2017-03-26T05:55:50.296Z,88.34
2017-03-26T05:56:50.274Z,88.29
2017-03-26T05:57:44.390Z,88.20
2017-03-26T05:58:38.414Z,88.12
2017-03-26T05:59:33.468Z,88.11
2017-03-26T06:00:33.475Z,88.12
2017-03-26T06:01:22.867Z,88.16
2017-03-26T06:02:23.621Z,88.20
2017-03-26T06:03:24.647Z,88.17
2017-03-26T06:04:24.654Z,88.13
2017-03-26T06:05:24.573Z,88.11
2017-03-26T06:06:24.734Z,88.08
2017-03-26T06:07:19.800Z,88.05
2017-03-26T06:08:19.736Z,88.09
2017-03-26T06:09:14.739Z,88.02
2017-03-26T06:10:09.796Z,87.98
2017-03-26T06:11:03.866Z,87.94
2017-03-26T06:11:58.828Z,87.88
2017-03-26T06:12:53.251Z,87.84
2017-03-26T06:13:52.901Z,87.83
2017-03-26T06:14:47.942Z,87.77
2017-03-26T06:15:36.978Z,87.75
2017-03-26T06:16:31.977Z,87.70
2017-03-26T06:17:27.046Z,87.71
2017-03-26T06:18:27.026Z,87.62
2017-03-26T06:19:22.335Z,87.54
2017-03-26T06:20:16.152Z,87.52
2017-03-26T06:21:16.165Z,87.56
2017-03-26T06:22:16.247Z,87.53
2017-03-26T06:23:16.246Z,87.48
2017-03-26T06:24:10.255Z,87.47
2017-03-26T06:25:10.298Z,87.40
2017-03-26T06:26:05.290Z,87.35
2017-03-26T06:26:59.384Z,87.31
2017-03-26T06:27:59.396Z,87.19
2017-03-26T06:28:53.604Z,87.16
2017-03-26T06:29:53.656Z,87.17
2017-03-26T06:30:47.513Z,87.16
2017-03-26T06:31:48.502Z,87.21
2017-03-26T06:32:49.570Z,87.12
2017-03-26T06:33:43.731Z,87.13
2017-03-26T06:34:37.587Z,87.18
2017-03-26T06:35:37.669Z,87.16
2017-03-26T06:36:32.674Z,87.13
2017-03-26T06:37:27.081Z,87.10
2017-03-26T06:38:26.675Z,86.94
2017-03-26T06:39:20.778Z,86.84
2017-03-26T06:40:15.797Z,86.74
2017-03-26T06:41:16.846Z,86.65
2017-03-26T06:42:16.872Z,86.64
2017-03-26T06:43:16.881Z,86.59
2017-03-26T06:44:10.936Z,86.51
2017-03-26T06:45:10.947Z,86.54
2017-03-26T06:46:06.079Z,86.42
2017-03-26T06:47:00.957Z,86.00
2017-03-26T06:47:50.089Z,85.75
2017-03-26T06:48:45.077Z,85.51
2017-03-26T06:49:45.190Z,85.46
2017-03-26T06:50:40.184Z,85.16
2017-03-26T06:51:35.200Z,84.69
2017-03-26T06:52:29.621Z,84.27
2017-03-26T06:53:30.618Z,84.08
2017-03-26T06:54:25.276Z,83.98
2017-03-26T06:55:25.335Z,84.03
2017-03-26T06:56:25.363Z,83.73
2017-03-26T06:57:25.371Z,83.21
2017-03-26T06:58:25.393Z,83.19
2017-03-26T06:59:25.451Z,82.97
2017-03-26T07:00:25.531Z,82.64
2017-03-26T07:01:25.484Z,82.36
2017-03-26T07:02:25.900Z,82.28
2017-03-26T07:03:25.609Z,82.09
2017-03-26T07:04:25.627Z,81.95
2017-03-26T07:05:20.668Z,81.67
2017-03-26T07:06:15.684Z,81.24
2017-03-26T07:07:10.761Z,80.65
2017-03-26T07:08:04.719Z,80.69
2017-03-26T07:08:59.854Z,80.19
2017-03-26T07:09:53.873Z,79.72
2017-03-26T07:10:48.855Z,79.14
2017-03-26T07:11:49.906Z,78.47
2017-03-26T07:12:50.930Z,78.31
2017-03-26T07:13:51.985Z,78.70
2017-03-26T07:14:41.007Z,79.18
2017-03-26T07:15:35.441Z,79.06
2017-03-26T07:16:35.389Z,78.85
2017-03-26T07:17:35.452Z,78.60
2017-03-26T07:18:35.243Z,78.64
2017-03-26T07:19:35.439Z,78.66
2017-03-26T07:20:35.271Z,78.16
2017-03-26T07:21:35.283Z,78.34
2017-03-26T07:22:29.273Z,78.72
2017-03-26T07:23:18.366Z,78.66
2017-03-26T07:24:07.819Z,78.00
2017-03-26T07:25:02.450Z,76.72
2017-03-26T07:25:56.468Z,76.46
2017-03-26T07:26:56.521Z,77.15
2017-03-26T07:27:45.563Z,77.20
2017-03-26T07:28:39.959Z,76.90
2017-03-26T07:29:40.027Z,77.04
2017-03-26T07:30:33.800Z,77.42
2017-03-26T07:31:34.705Z,77.13
2017-03-26T07:32:34.770Z,78.00
2017-03-26T07:33:34.840Z,78.29
2017-03-26T07:34:28.848Z,78.09
2017-03-26T07:35:28.921Z,78.21
2017-03-26T07:36:23.945Z,78.19
2017-03-26T07:37:18.957Z,78.12
2017-03-26T07:38:12.992Z,77.93
2017-03-26T07:39:13.287Z,77.74
2017-03-26T07:40:08.434Z,78.25
2017-03-26T07:41:03.099Z,77.61
2017-03-26T07:42:03.200Z,76.45
2017-03-26T07:42:58.262Z,75.64
2017-03-26T07:43:53.251Z,75.44
2017-03-26T07:44:47.243Z,74.84
2017-03-26T07:45:42.651Z,74.90
2017-03-26T07:46:42.685Z,74.20
2017-03-26T07:47:37.382Z,73.80
2017-03-26T07:48:32.448Z,73.45
2017-03-26T07:49:26.427Z,73.46
2017-03-26T07:50:26.516Z,73.75
2017-03-26T07:51:26.499Z,74.74
2017-03-26T07:52:26.584Z,74.67
2017-03-26T07:53:26.660Z,74.47
2017-03-26T07:54:26.600Z,73.59
2017-03-26T07:55:26.699Z,74.31
2017-03-26T07:56:26.745Z,74.30
2017-03-26T07:57:26.780Z,74.31
2017-03-26T07:58:26.795Z,74.23
2017-03-26T07:59:26.791Z,74.50
2017-03-26T08:00:26.882Z,73.99
2017-03-26T08:01:20.855Z,73.21
2017-03-26T08:02:09.942Z,73.72
2017-03-26T08:03:03.995Z,72.64
2017-03-26T08:04:04.053Z,73.08
2017-03-26T08:04:53.158Z,72.99
2017-03-26T08:05:48.254Z,72.64
2017-03-26T08:06:42.138Z,71.94
2017-03-26T08:07:42.183Z,71.78
2017-03-26T08:08:37.236Z,69.58
2017-03-26T08:09:31.357Z,70.10
2017-03-26T08:10:31.288Z,70.72
2017-03-26T08:11:26.298Z,71.65
2017-03-26T08:12:20.598Z,71.29
2017-03-26T08:13:20.665Z,71.66
2017-03-26T08:14:14.472Z,72.03
2017-03-26T08:15:15.526Z,72.07
2017-03-26T08:16:09.569Z,71.88
2017-03-26T08:17:04.645Z,71.89
2017-03-26T08:17:58.706Z,71.46
2017-03-26T08:18:52.770Z,71.05
2017-03-26T08:19:46.771Z,71.35
2017-03-26T08:20:41.797Z,71.00
2017-03-26T08:21:41.872Z,69.71
2017-03-26T08:22:35.920Z,68.52
2017-03-26T08:23:35.926Z,69.35
2017-03-26T08:24:23.940Z,68.94
2017-03-26T08:25:23.955Z,70.42
2017-03-26T08:26:18.121Z,70.73
2017-03-26T08:27:18.094Z,71.55
2017-03-26T08:28:12.152Z,70.91
2017-03-26T08:29:12.173Z,70.76
2017-03-26T08:30:06.209Z,70.75
2017-03-26T08:31:07.333Z,71.33
2017-03-26T08:32:07.314Z,71.15
2017-03-26T08:33:02.362Z,70.94
2017-03-26T08:33:56.348Z,69.95
2017-03-26T08:34:51.533Z,70.05
2017-03-26T08:35:45.462Z,69.47
2017-03-26T08:36:45.538Z,69.69
2017-03-26T08:37:39.590Z,70.13
2017-03-26T08:38:39.613Z,70.43
2017-03-26T08:39:34.669Z,70.69
2017-03-26T08:40:29.640Z,68.83
2017-03-26T08:41:17.766Z,69.10
2017-03-26T08:42:17.786Z,67.86
2017-03-26T08:43:12.883Z,67.30
2017-03-26T08:44:01.845Z,65.64
2017-03-26T08:44:56.343Z,65.52
2017-03-26T08:45:50.986Z,65.40
2017-03-26T08:46:46.010Z,65.78
2017-03-26T08:47:35.013Z,64.40
2017-03-26T08:48:30.149Z,63.78
2017-03-26T08:49:30.114Z,64.70
2017-03-26T08:50:25.246Z,64.70
2017-03-26T08:51:20.213Z,66.34
2017-03-26T08:52:14.288Z,66.43
2017-03-26T08:53:14.407Z,65.37
2017-03-26T08:54:09.392Z,65.93
2017-03-26T08:55:03.351Z,66.84
2017-03-26T08:56:03.456Z,67.31
2017-03-26T08:56:57.574Z,68.54
2017-03-26T08:57:58.887Z,67.60
2017-03-26T08:58:52.564Z,67.55
2017-03-26T08:59:47.665Z,67.49
2017-03-26T09:00:47.669Z,66.82
2017-03-26T09:01:42.673Z,67.48
2017-03-26T09:02:38.063Z,64.82
2017-03-26T09:03:26.788Z,64.28
2017-03-26T09:04:21.858Z,65.09
2017-03-26T09:05:16.975Z,65.44
2017-03-26T09:06:18.052Z,66.14
2017-03-26T09:07:12.019Z,66.20
2017-03-26T09:08:05.995Z,64.62
2017-03-26T09:09:06.046Z,65.14
2017-03-26T09:10:00.121Z,65.17
2017-03-26T09:10:49.219Z,65.74
2017-03-26T09:11:49.360Z,65.80
2017-03-26T09:12:44.265Z,65.99
2017-03-26T09:13:39.401Z,66.97
2017-03-26T09:14:39.366Z,65.60
2017-03-26T09:15:33.773Z,64.91
2017-03-26T09:16:28.484Z,63.73
2017-03-26T09:17:23.517Z,64.34
2017-03-26T09:18:18.532Z,62.43
2017-03-26T09:19:18.574Z,61.25
2017-03-26T09:20:13.637Z,61.80
2017-03-26T09:21:13.723Z,62.00
2017-03-26T09:22:08.096Z,62.75
2017-03-26T09:23:08.014Z,63.35
2017-03-26T09:24:08.289Z,62.56
2017-03-26T09:25:08.368Z,62.36
2017-03-26T09:26:08.290Z,62.57
2017-03-26T09:27:08.553Z,62.28
2017-03-26T09:28:02.050Z,61.75
2017-03-26T09:28:57.006Z,59.91
2017-03-26T09:29:57.026Z,59.91
2017-03-26T09:30:52.169Z,58.40
2017-03-26T09:31:47.147Z,59.17
2017-03-26T09:32:41.756Z,59.32
2017-03-26T09:33:41.860Z,60.01
2017-03-26T09:34:35.259Z,60.37
2017-03-26T09:35:35.307Z,61.23
2017-03-26T09:36:30.399Z,62.60
2017-03-26T09:37:30.407Z,63.32
2017-03-26T09:38:25.494Z,64.63
2017-03-26T09:39:19.482Z,64.43
2017-03-26T09:40:19.532Z,63.47
2017-03-26T09:41:13.999Z,61.87
2017-03-26T09:42:14.212Z,61.25
2017-03-26T09:43:02.676Z,61.42
2017-03-26T09:43:56.729Z,60.22
2017-03-26T09:44:56.795Z,61.55
2017-03-26T09:45:51.816Z,63.01
2017-03-26T09:46:46.865Z,62.42
2017-03-26T09:47:42.128Z,62.71
2017-03-26T09:48:43.322Z,62.97
2017-03-26T09:49:43.509Z,63.24
2017-03-26T09:50:38.075Z,63.77
2017-03-26T09:51:27.161Z,63.82
2017-03-26T09:52:22.185Z,63.64
2017-03-26T09:53:17.345Z,60.25
2017-03-26T09:54:11.203Z,61.25
2017-03-26T09:55:05.270Z,58.17
2017-03-26T09:55:59.317Z,57.12
2017-03-26T09:56:53.367Z,57.53
2017-03-26T09:57:47.855Z,57.52
2017-03-26T09:58:47.883Z,58.84
2017-03-26T09:59:36.506Z,58.74
2017-03-26T10:00:31.531Z,59.52
2017-03-26T10:01:31.601Z,57.23
2017-03-26T10:02:20.585Z,56.59
2017-03-26T10:03:14.691Z,56.17
2017-03-26T10:04:09.699Z,56.12
2017-03-26T10:05:09.745Z,55.80
2017-03-26T10:06:04.880Z,56.14
2017-03-26T10:06:58.929Z,56.18
2017-03-26T10:07:58.961Z,55.44
2017-03-26T10:08:53.901Z,55.40
2017-03-26T10:09:54.339Z,53.98
2017-03-26T10:10:54.003Z,55.85
2017-03-26T10:11:54.024Z,55.87
2017-03-26T10:12:48.347Z,56.00
2017-03-26T10:13:42.178Z,55.72
2017-03-26T10:14:42.307Z,56.15
2017-03-26T10:15:42.271Z,55.26
2017-03-26T10:16:36.282Z,53.36
2017-03-26T10:17:31.366Z,51.65
2017-03-26T10:18:31.362Z,52.83
2017-03-26T10:19:26.586Z,52.62
2017-03-26T10:20:21.853Z,52.64
2017-03-26T10:21:15.486Z,52.74
2017-03-26T10:22:15.569Z,52.85
2017-03-26T10:23:09.742Z,52.20
2017-03-26T10:24:10.615Z,53.54
2017-03-26T10:25:11.689Z,52.65
2017-03-26T10:26:05.795Z,53.18
2017-03-26T10:27:05.790Z,52.75
2017-03-26T10:27:54.928Z,52.08
2017-03-26T10:28:54.901Z,51.98
2017-03-26T10:29:55.292Z,51.64
2017-03-26T10:30:43.958Z,52.02
2017-03-26T10:31:37.990Z,51.59
2017-03-26T10:32:33.014Z,51.56
2017-03-26T10:33:33.154Z,51.50
2017-03-26T10:34:28.191Z,48.31
2017-03-26T10:35:23.453Z,49.24
2017-03-26T10:36:23.699Z,48.39
2017-03-26T10:37:17.269Z,49.90
2017-03-26T10:38:18.345Z,51.12
2017-03-26T10:39:18.395Z,51.12
2017-03-26T10:40:12.485Z,52.88
2017-03-26T10:41:06.514Z,49.89
2017-03-26T10:42:01.508Z,50.60
2017-03-26T10:42:56.978Z,50.37
2017-03-26T10:43:56.840Z,49.80
2017-03-26T10:44:51.637Z,49.06
2017-03-26T10:45:39.690Z,47.99
2017-03-26T10:46:34.786Z,48.69
2017-03-26T10:47:29.028Z,49.09
2017-03-26T10:48:22.803Z,50.78
2017-03-26T10:49:11.907Z,51.65
2017-03-26T10:50:06.990Z,47.98
2017-03-26T10:51:07.955Z,47.63
2017-03-26T10:52:03.018Z,48.45
2017-03-26T10:53:03.008Z,49.34
2017-03-26T10:54:03.146Z,47.10
2017-03-26T10:55:03.115Z,47.15
2017-03-26T10:55:58.449Z,48.55
2017-03-26T10:56:53.261Z,46.50
2017-03-26T10:57:53.316Z,46.07
2017-03-26T10:58:48.325Z,47.56
2017-03-26T10:59:42.459Z,46.54
2017-03-26T11:00:42.405Z,48.85
2017-03-26T11:01:37.494Z,48.57
2017-03-26T11:02:37.492Z,48.15
2017-03-26T11:03:37.557Z,46.99
2017-03-26T11:04:37.578Z,48.89
2017-03-26T11:05:25.673Z,46.49
2017-03-26T11:06:19.699Z,45.46
2017-03-26T11:07:07.752Z,45.43
2017-03-26T11:08:03.404Z,44.96
2017-03-26T11:09:03.216Z,48.52
2017-03-26T11:09:56.882Z,43.36
2017-03-26T11:10:56.940Z,43.17
2017-03-26T11:11:51.949Z,43.68
2017-03-26T11:12:47.035Z,42.75
2017-03-26T11:13:41.104Z,43.55
2017-03-26T11:14:41.461Z,44.22
2017-03-26T11:15:36.078Z,46.29
2017-03-26T11:16:30.173Z,46.57
2017-03-26T11:17:30.234Z,47.13
2017-03-26T11:18:19.275Z,46.72
2017-03-26T11:19:14.387Z,46.39
2017-03-26T11:20:14.406Z,45.36
2017-03-26T11:21:09.547Z,45.39
2017-03-26T11:22:03.825Z,45.27
2017-03-26T11:23:03.799Z,45.71
2017-03-26T11:23:57.639Z,45.94
2017-03-26T11:24:58.623Z,45.48
2017-03-26T11:25:53.709Z,44.97
2017-03-26T11:26:47.710Z,44.96
2017-03-26T11:27:41.728Z,46.93
2017-03-26T11:28:41.777Z,46.99
2017-03-26T11:29:37.226Z,47.84
2017-03-26T11:30:32.406Z,47.09
2017-03-26T11:31:25.975Z,46.59
2017-03-26T11:32:19.984Z,47.34
2017-03-26T11:33:14.047Z,45.56
2017-03-26T11:34:14.131Z,45.58
2017-03-26T11:35:03.199Z,45.69
2017-03-26T11:35:58.286Z,46.48
2017-03-26T11:36:52.192Z,46.57
2017-03-26T11:37:47.311Z,46.44
2017-03-26T11:38:41.712Z,45.58
2017-03-26T11:39:41.356Z,45.32
2017-03-26T11:40:36.485Z,45.40
2017-03-26T11:41:31.449Z,45.24
2017-03-26T11:42:26.483Z,44.94
2017-03-26T11:43:26.543Z,45.02
2017-03-26T11:44:21.706Z,44.52
2017-03-26T11:45:15.649Z,44.49
2017-03-26T11:46:15.694Z,43.99
2017-03-26T11:47:11.802Z,43.75
2017-03-26T11:48:06.177Z,44.45
2017-03-26T11:49:06.251Z,44.22
2017-03-26T11:49:54.887Z,45.42
2017-03-26T11:50:54.913Z,44.63
2017-03-26T11:51:50.073Z,43.99
2017-03-26T11:52:45.081Z,43.91
2017-03-26T11:53:46.010Z,44.88
2017-03-26T11:54:34.251Z,43.52
2017-03-26T11:55:34.176Z,43.57
2017-03-26T11:56:29.188Z,44.15
2017-03-26T11:57:18.272Z,42.63
2017-03-26T11:58:12.767Z,43.93
2017-03-26T11:59:12.344Z,44.10
2017-03-26T12:00:07.451Z,43.78
2017-03-26T12:01:01.491Z,44.03